Latest Weather Observations for Gabo Island

IDV60801

Issued at 5:31 pm EST Sunday 29 May 2016 (issued every 30 minutes, with the page automatically refreshed every 10 minutes)

About weather observations | Map of weather stations | Latest weather observations for VIC | Other Formats
Station Details ID: 084016 Name: GABO ISLAND LIGHTHOUSE Lat: -37.57 Lon: 149.92 Height: 15.2 m
Data from the previous 72 hours. | See also: Recent months at Gabo Island
Date/Time
EST
Temp
°C
App
Temp
°C
Dew
Point
Rel
Hum
%
Delta-T
°C
Wind Press
QNH
hPa
Press
MSL
hPa
Rain
since 9 am
mm
Dir
 
Spd
km/h
Gust
km/h
Spd
kts
Gust
kts
29/05:30pm 11.5 3.9 8.9 84 1.3 WSW 39 48 21 26 1017.5 - 1.0
29/05:00pm 12.4 4.1 7.9 74 2.2 WSW 41 54 22 29 1017.0 - 0.0
29/04:30pm 13.0 3.6 7.0 67 2.9 W 46 56 25 30 1016.6 - 0.0
29/04:00pm 13.2 5.1 7.0 66 3.0 W 39 48 21 26 1016.1 - 0.0
29/03:30pm 13.9 6.2 6.9 62 3.4 WSW 37 48 20 26 1015.9 - 0.0
29/03:00pm 13.7 3.4 6.4 61 3.5 WSW 50 63 27 34 1015.7 1015.7 0.0
29/02:50pm 14.3 5.8 6.9 61 3.6 WSW 41 61 22 33 1015.7 - 0.0
29/02:30pm 14.3 6.0 7.6 64 3.3 WSW 41 50 22 27 1015.4 - 0.0
29/02:00pm 14.3 3.3 6.9 61 3.6 WSW 54 67 29 36 1014.9 - 0.0
29/01:30pm 14.5 5.6 6.9 60 3.7 WSW 43 59 23 32 1014.6 - 0.0
29/01:00pm 14.4 4.9 6.5 59 3.8 WSW 46 59 25 32 1014.5 - 0.0
29/12:30pm 14.4 5.7 7.5 63 3.4 W 43 54 23 29 1014.5 - 0.0
29/12:04pm 13.2 4.5 7.9 70 2.6 WSW 43 61 23 33 1014.8 - 0.0
29/12:00pm 14.0 5.4 8.0 67 3.0 WSW 43 56 23 30 1014.8 1014.8 0.0
29/11:30am 14.2 6.0 8.2 67 3.0 WSW 41 54 22 29 1015.0 - 0.0
29/11:00am 13.6 4.2 7.0 64 3.2 W 46 57 25 31 1014.8 - 0.0
29/10:30am 13.1 4.2 7.6 69 2.7 W 44 57 24 31 1015.0 - 0.0
29/10:00am 12.8 3.9 6.8 67 2.9 W 43 52 23 28 1014.7 - 0.0
29/09:30am 12.8 4.4 7.2 69 2.7 W 41 52 22 28 1014.6 - 0.0
29/09:00am 12.8 4.4 7.2 69 2.7 W 41 52 22 28 1014.3 1014.3 18.6
29/08:30am 12.0 3.1 6.8 70 2.5 W 43 54 23 29 1013.9 - 18.6
29/08:00am 11.7 3.2 6.9 72 2.3 W 41 56 22 30 1013.7 - 18.6
29/07:30am 11.4 2.3 6.8 73 2.2 W 44 56 24 30 1013.5 - 18.6
29/07:00am 11.3 2.2 6.9 74 2.1 W 44 57 24 31 1013.1 - 18.6
29/06:30am 11.2 1.3 6.5 73 2.2 W 48 61 26 33 1012.6 - 18.6
29/06:00am 11.2 2.3 7.0 75 2.0 W 43 56 23 30 1012.5 1012.5 18.6
29/05:30am 11.2 2.1 6.8 74 2.1 W 44 57 24 31 1012.2 - 18.6
29/05:00am 11.3 2.2 6.9 74 2.1 W 44 57 24 31 1012.0 - 18.6
29/04:30am 11.1 2.2 6.7 74 2.1 W 43 52 23 28 1011.8 - 18.6
29/04:00am 11.2 2.1 7.0 75 2.0 W 44 57 24 31 1011.7 - 18.6
29/03:30am 11.3 1.8 6.9 74 2.1 W 46 57 25 31 1011.2 - 18.6
29/03:00am 11.3 1.6 7.4 77 1.9 W 48 61 26 33 1011.2 1011.2 18.6
29/02:30am 11.2 1.5 7.5 78 1.8 W 48 57 26 31 1011.1 - 18.6
29/02:00am 11.2 1.1 7.5 78 1.8 W 50 63 27 34 1010.8 - 18.6
29/01:30am 10.8 1.4 7.2 78 1.7 W 46 59 25 32 1010.8 - 18.6
29/01:00am 10.9 2.1 7.4 79 1.7 W 43 56 23 30 1010.9 - 18.6
29/12:30am 10.9 2.0 7.8 81 1.5 W 44 56 24 30 1010.9 - 18.6
29/12:00am 10.9 2.0 7.6 80 1.6 W 44 54 24 29 1010.8 1010.8 18.6
 
Date/Time
EST
Temp
°C
App
Temp
°C
Dew
Point
Rel
Hum
%
Delta-T
°C
Wind Press
QNH
hPa
Press
MSL
hPa
Rain
since 9 am
mm
Dir
 
Spd
km/h
Gust
km/h
Spd
kts
Gust
kts
28/11:30pm 11.0 1.7 7.5 79 1.7 W 46 59 25 32 1010.9 - 18.4
28/11:00pm 10.8 2.0 7.2 78 1.7 W 43 56 23 30 1011.0 - 18.4
28/10:30pm 10.9 2.4 7.1 77 1.8 W 41 48 22 26 1011.0 - 18.4
28/10:00pm 11.0 2.3 7.9 81 1.5 W 43 54 23 29 1010.8 - 18.4
28/09:30pm 10.9 3.0 8.0 82 1.4 W 39 46 21 25 1010.8 - 18.4
28/09:00pm 11.0 2.8 8.4 84 1.3 W 41 46 22 25 1010.5 1010.5 18.4
28/08:30pm 11.3 3.3 8.9 85 1.2 W 41 48 22 26 1010.3 - 18.4
28/08:00pm 11.4 3.5 9.2 86 1.1 W 41 50 22 27 1010.0 - 18.4
28/07:30pm 11.5 5.4 9.7 89 0.9 W 32 41 17 22 1009.8 - 18.4
28/07:00pm 12.2 3.9 9.9 86 1.2 WSW 44 57 24 31 1009.4 - 18.4
28/06:41pm 11.9 3.6 9.5 85 1.2 WSW 43 61 23 33 1009.4 - 18.4
28/06:30pm 11.9 4.9 10.1 89 0.9 WSW 37 46 20 25 1009.2 - 18.4
28/06:00pm 11.5 4.9 10.1 91 0.7 W 35 43 19 23 1008.7 1008.7 17.8
28/05:30pm 11.6 2.7 10.6 94 0.5 WSW 48 61 26 33 1008.5 - 17.6
28/05:00pm 11.2 4.2 10.0 92 0.6 W 37 54 20 29 1008.0 - 17.0
28/04:30pm 11.1 4.2 10.3 95 0.4 W 37 48 20 26 1007.5 - 15.0
28/04:00pm 11.1 3.0 10.1 94 0.5 W 43 56 23 30 1007.2 - 12.8
28/03:30pm 11.0 3.6 10.0 93 0.5 W 39 54 21 29 1006.8 - 10.6
28/03:00pm 11.0 3.5 9.6 91 0.7 W 39 48 21 26 1006.5 1006.5 8.0
28/02:30pm 10.9 3.8 9.7 92 0.6 W 37 44 20 24 1006.2 - 7.8
28/02:00pm 10.5 2.5 9.1 91 0.7 W 41 52 22 28 1006.0 - 7.2
28/01:30pm 10.6 1.0 9.4 92 0.6 W 50 63 27 34 1005.5 - 5.8
28/01:00pm 10.8 1.7 8.6 86 1.1 W 46 57 25 31 1005.5 - 5.2
28/12:40pm 11.0 3.8 9.2 89 0.9 W 37 56 20 30 1005.7 - 5.2
28/12:30pm 10.8 4.3 9.0 89 0.9 W 33 44 18 24 1005.9 - 5.2
28/12:00pm 9.8 5.3 8.4 91 0.7 W 22 32 12 17 1006.1 1006.1 5.2
28/11:30am 9.5 3.8 8.3 92 0.6 WNW 28 37 15 20 1006.1 - 5.2
28/11:00am 9.4 3.7 8.2 92 0.6 WNW 28 37 15 20 1006.4 - 4.4
28/10:30am 9.8 4.2 8.6 92 0.6 W 28 39 15 21 1006.7 - 3.4
28/10:00am 10.1 4.1 8.7 91 0.7 W 30 41 16 22 1006.7 - 1.4
28/09:30am 9.8 4.1 8.2 90 0.8 W 28 35 15 19 1006.5 - 0.4
28/09:00am 9.8 4.5 8.4 91 0.7 W 26 33 14 18 1006.5 1006.5 17.2
28/08:30am 9.6 3.9 8.2 91 0.7 W 28 33 15 18 1006.5 - 16.6
28/08:00am 9.8 3.2 7.9 88 0.9 W 32 43 17 23 1006.3 - 16.2
28/07:30am 9.8 3.6 7.9 88 0.9 W 30 39 16 21 1006.1 - 16.0
28/07:00am 9.7 3.1 7.6 87 1.0 W 32 43 17 23 1005.9 - 15.8
28/06:30am 10.0 2.8 7.7 86 1.1 W 35 46 19 25 1005.5 - 15.8
28/06:00am 9.7 2.6 8.0 89 0.8 W 35 43 19 23 1005.0 1005.0 15.4
28/05:30am 10.1 2.1 7.6 84 1.2 W 39 46 21 25 1005.1 - 15.2
28/05:00am 10.5 2.8 6.9 78 1.7 W 37 48 20 26 1005.0 - 15.2
28/04:30am 10.6 2.1 7.0 78 1.7 W 41 50 22 27 1005.0 - 15.2
28/04:00am 10.8 1.7 7.0 77 1.8 W 44 56 24 30 1004.8 - 15.2
28/03:30am 10.7 1.6 6.9 77 1.8 W 44 54 24 29 1004.8 - 15.2
28/03:00am 10.6 0.9 7.5 81 1.5 W 48 59 26 32 1004.7 1004.7 15.2
28/02:30am 11.0 1.8 7.9 81 1.5 W 46 57 25 31 1005.1 - 15.0
28/02:00am 11.6 3.3 7.9 78 1.8 W 41 54 22 29 1005.2 - 15.0
28/01:30am 11.6 2.9 7.7 77 1.9 W 43 54 23 29 1004.9 - 15.0
28/01:00am 11.5 3.5 7.6 77 1.9 W 39 50 21 27 1004.9 - 15.0
28/12:30am 11.9 3.8 8.5 80 1.7 W 41 48 22 26 1004.8 - 15.0
28/12:00am 11.5 3.8 8.5 82 1.5 W 39 50 21 27 1004.9 1004.9 15.0
 
Date/Time
EST
Temp
°C
App
Temp
°C
Dew
Point
Rel
Hum
%
Delta-T
°C
Wind Press
QNH
hPa
Press
MSL
hPa
Rain
since 9 am
mm
Dir
 
Spd
km/h
Gust
km/h
Spd
kts
Gust
kts
27/11:44pm 11.5 2.9 8.3 81 1.6 W 43 61 23 33 1004.8 - 15.0
27/11:30pm 11.5 3.8 8.7 83 1.4 W 39 50 21 27 1004.9 - 15.0
27/11:00pm 11.6 3.1 9.2 85 1.2 W 44 54 24 29 1004.7 - 15.0
27/10:30pm 11.4 2.5 9.2 86 1.1 WSW 46 57 25 31 1004.4 - 15.0
27/10:00pm 11.2 2.4 9.4 89 0.9 W 46 59 25 32 1004.3 - 15.0
27/09:30pm 11.3 2.1 9.5 89 0.9 W 48 59 26 32 1004.6 - 15.0
27/09:00pm 11.3 2.5 9.5 89 0.9 W 46 57 25 31 1004.6 1004.6 14.8
27/08:30pm 11.6 2.4 9.6 87 1.0 WSW 48 61 26 33 1004.2 - 14.8
27/08:00pm 11.8 3.5 10.0 89 0.9 WSW 44 56 24 30 1004.2 - 14.8
27/07:30pm 11.9 2.9 10.2 89 0.9 WSW 48 61 26 33 1003.9 - 14.6
27/07:00pm 12.0 3.3 10.1 88 1.0 WSW 46 59 25 32 1003.5 - 14.6
27/06:30pm 12.2 3.5 10.1 87 1.1 WSW 46 72 25 39 1003.3 - 14.6
27/06:00pm 12.3 1.3 9.1 81 1.6 WSW 57 80 31 43 1002.6 1002.6 14.6
27/05:43pm 12.3 0.8 10.0 86 1.2 WSW 61 80 33 43 1002.4 - 14.6
27/05:30pm 11.8 0.9 9.6 86 1.1 WSW 57 70 31 38 1002.3 - 14.4
27/05:00pm 12.0 0.4 9.9 87 1.1 WSW 61 83 33 45 1001.6 - 14.4
27/04:30pm 11.7 -1.4 9.7 87 1.0 SW 69 87 37 47 1001.1 - 13.8
27/04:00pm 11.7 -0.2 9.9 89 0.9 WSW 63 83 34 45 1000.5 - 12.8
27/03:30pm 12.2 -1.2 10.7 90 0.8 SW 72 95 39 51 1000.1 - 10.8
27/03:00pm 11.6 -0.6 10.2 91 0.7 WSW 65 89 35 48 999.7 999.7 9.0
27/02:33pm 11.7 -1.0 10.1 90 0.8 WSW 67 89 36 48 999.1 - 7.4
27/02:30pm 12.1 -0.4 10.8 92 0.7 WSW 67 83 36 45 999.2 - 7.4
27/02:00pm 12.1 -1.5 10.2 88 1.0 WSW 72 91 39 49 998.5 - 6.0
27/01:30pm 11.7 -1.6 9.9 89 0.9 WSW 70 91 38 49 998.2 - 4.6
27/01:05pm 11.6 -0.8 9.8 89 0.9 WSW 65 83 35 45 997.9 - 3.2
27/01:00pm 11.6 -0.4 9.8 89 0.9 WSW 63 74 34 40 997.9 - 3.0
27/12:30pm 11.6 -0.8 9.6 87 1.0 WSW 65 85 35 46 997.7 - 1.0
27/12:02pm 11.6 -0.5 9.4 86 1.1 WSW 63 82 34 44 997.6 - 0.6
27/12:00pm 11.4 -1.2 9.0 85 1.2 WSW 65 82 35 44 997.6 997.6 0.6
27/11:30am 11.6 -1.4 8.6 82 1.5 WSW 67 87 36 47 997.5 - 0.4
27/11:00am 11.2 -1.4 9.0 86 1.1 WSW 65 87 35 47 997.7 - 0.4
27/10:30am 11.0 -0.7 9.2 89 0.9 WSW 61 83 33 45 998.1 - 0.2
27/10:06am 11.4 -0.8 8.8 84 1.3 WSW 63 82 34 44 997.9 - 0.0
27/10:00am 11.3 -1.3 8.7 84 1.3 WSW 65 82 35 44 998.0 - 0.0
27/09:30am 10.9 -1.5 8.3 84 1.3 WSW 63 82 34 44 998.0 - 0.0
27/09:07am 10.8 -1.5 8.4 85 1.2 W 63 83 34 45 997.9 - 0.0
27/09:00am 10.6 -1.1 7.9 83 1.3 W 59 76 32 41 998.0 998.0 7.2
27/08:33am 10.8 -0.9 7.7 81 1.5 WSW 59 80 32 43 997.7 - 7.0
27/08:30am 11.0 -1.0 8.2 83 1.4 WSW 61 76 33 41 997.7 - 7.0
27/08:01am 10.8 -1.6 8.2 84 1.3 WSW 63 82 34 44 997.6 - 7.0
27/08:00am 10.7 -2.1 8.0 83 1.3 WSW 65 82 35 44 997.6 - 7.0
27/07:31am 11.5 -0.6 7.8 78 1.8 WSW 61 80 33 43 997.5 - 6.8
27/07:30am 11.4 -1.1 7.7 78 1.8 WSW 63 80 34 43 997.5 - 6.8
27/07:13am 11.7 -0.5 7.2 74 2.2 W 61 80 33 43 997.4 - 6.8
27/07:00am 11.5 -1.2 6.7 72 2.3 WSW 63 76 34 41 997.2 - 6.8
27/06:30am 11.5 -1.1 7.2 75 2.1 WSW 63 83 34 45 997.2 - 6.8
27/06:00am 11.8 0.1 7.7 76 2.0 WSW 59 82 32 44 997.1 997.1 6.8
27/05:33am 11.5 -0.8 6.9 73 2.2 WSW 61 82 33 44 997.1 - 6.8
27/05:30am 11.6 -0.6 7.3 75 2.1 WSW 61 78 33 42 997.2 - 6.8
27/05:00am 11.7 -0.5 7.2 74 2.2 W 61 82 33 44 997.0 - 6.8
27/04:30am 11.6 -1.3 7.7 77 1.9 W 65 87 35 47 997.0 - 6.8
27/04:00am 11.8 0.7 8.6 81 1.6 WSW 57 76 31 41 997.2 - 6.8
27/03:30am 11.7 0.1 8.3 79 1.7 WSW 59 82 32 44 997.2 - 6.6
27/03:00am 11.7 -0.2 8.5 81 1.6 WSW 61 80 33 43 997.3 997.3 6.6
27/02:36am 11.7 0.1 8.1 78 1.8 W 59 78 32 42 997.2 - 6.6
27/02:30am 11.8 0.3 8.6 81 1.6 W 59 74 32 40 997.3 - 6.6
27/02:09am 11.7 -0.3 8.1 78 1.8 W 61 82 33 44 997.4 - 6.6
27/02:00am 11.7 0.5 8.5 81 1.6 W 57 72 31 39 997.3 - 6.6
27/01:30am 12.1 0.4 7.8 75 2.1 W 59 83 32 45 997.2 - 6.6
27/01:11am 12.1 0.9 8.3 77 1.9 W 57 76 31 41 997.3 - 6.6
27/01:00am 12.0 0.8 8.4 78 1.8 W 57 72 31 39 997.3 - 6.6
27/12:43am 11.7 0.6 8.1 78 1.8 W 56 74 30 40 997.3 - 6.6
27/12:30am 11.8 0.8 8.4 80 1.7 W 56 70 30 38 997.5 - 6.6
27/12:01am 11.5 1.2 8.0 79 1.7 W 52 72 28 39 997.6 - 6.6
27/12:00am 11.6 1.3 8.2 79 1.7 W 52 65 28 35 997.6 997.6 6.6
 
Date/Time
EST
Temp
°C
App
Temp
°C
Dew
Point
Rel
Hum
%
Delta-T
°C
Wind Press
QNH
hPa
Press
MSL
hPa
Rain
since 9 am
mm
Dir
 
Spd
km/h
Gust
km/h
Spd
kts
Gust
kts
26/11:47pm 11.6 1.7 8.4 81 1.6 W 50 69 27 37 997.8 - 6.6
26/11:30pm 11.5 1.2 8.0 79 1.7 W 52 65 28 35 998.1 - 6.6
26/11:19pm 11.3 0.9 7.8 79 1.7 W 52 72 28 39 998.3 - 6.6
26/11:00pm 11.3 1.0 8.3 82 1.5 W 52 65 28 35 998.5 - 6.6
26/10:31pm 11.0 1.6 8.6 85 1.2 W 48 67 26 36 998.8 - 6.6
26/10:30pm 11.0 1.1 8.4 84 1.3 W 50 67 27 36 998.8 - 6.6
26/10:26pm 11.0 1.6 8.6 85 1.2 W 48 67 26 36 998.9 - 6.6
26/10:00pm 11.0 2.4 9.0 87 1.0 W 44 59 24 32 999.1 - 6.6
26/09:30pm 11.2 1.9 9.0 86 1.1 W 48 61 26 33 999.1 - 6.6
26/09:00pm 11.2 2.8 9.6 90 0.8 W 44 59 24 32 999.1 999.1 6.6
26/08:30pm 11.6 4.2 9.8 89 0.9 W 39 50 21 27 999.0 - 6.6
26/08:00pm 11.5 4.1 9.9 90 0.8 W 39 48 21 26 999.1 - 6.6
26/07:30pm 11.3 4.6 9.7 90 0.8 W 35 44 19 24 999.0 - 6.4
26/07:00pm 11.4 5.1 9.6 89 0.9 W 33 44 18 24 999.0 - 6.0
26/06:30pm 11.6 5.3 9.6 87 1.0 W 33 43 18 23 998.9 - 5.8
26/06:00pm 11.7 5.3 9.5 86 1.1 W 33 43 18 23 998.9 998.9 5.8

Other Formats:

Comma delimited format used in spreadsheet applications
http://www.bom.gov.au/fwo/IDV60801/IDV60801.94933.axf

JavaScript Object Notation format (JSON) in row-major order
http://www.bom.gov.au/fwo/IDV60801/IDV60801.94933.json